• Join FlightAware (Why Join?)
  • Login
  • US Flag 
12:12PM EDT


 

Airport Tracker/Info


-or-


 

Live Flight TrackerFlight Track Log ✈ ASQ5873 ✈ 23-Apr-2013 ✈ KBNA - KORD

Flight Track Log - Related Links

Times and Time Zones

All times are in EDT time to prevent confusion due to time zone crossing. See the ASQ5873 flight status page for this flight to view local times or setup timezone preferences in your user account.

Time Position Orientation Groundspeed Altitude Reporting Facility
EDT Latitude Longitude Course Direction KTS MPH feet Rate Location/Type
07:10AM 36.1167 -86.6833 219° Southwest 161 185 1,100  Level Nashville TRACON
07:11AM 36.1000 -86.7000 219° Southwest 166 191 2,500 2,520 Climbing Nashville TRACON
07:12AM 36.1000 -86.7667 270° West 244 281 4,700 2,580 Climbing Nashville TRACON
07:13AM 36.1667 -86.7667 360° North 293 337 7,700 2,580 Climbing Nashville TRACON
07:14AM 36.2550 -86.7050 29° Northeast 288 331 10,500 1,980 Climbing Memphis Center
07:15AM 36.3328 -86.6575 26° Northeast 293 337 12,200 1,620 Climbing Memphis Center
07:16AM 36.4167 -86.6047 27° Northeast 319 367 13,800 1,500 Climbing Memphis Center
07:17AM 36.5044 -86.5467 28° Northeast 344 396 15,300 1,620 Climbing Memphis Center
07:18AM 36.5942 -86.4881 28° Northeast 354 407 17,100 1,680 Climbing Memphis Center
07:19AM 36.6800 -86.4294 29° Northeast 360 414 18,700 1,800 Climbing Memphis Center
07:20AM 36.7722 -86.3783 24° Northeast 360 414 20,700 1,860 Climbing Memphis Center
07:21AM 36.8622 -86.3300 23° Northeast 348 400 22,500 1,680 Climbing Memphis Center
07:23AM 37.0447 -86.2397 22° Northeast 353 406 25,900 1,560 Climbing Indianapolis Center
07:24AM 37.1364 -86.1939 22° Northeast 352 405 27,400 1,440 Climbing Indianapolis Center
07:25AM 37.2289 -86.1472 22° Northeast 353 406 28,900 780 Climbing Indianapolis Center
07:26AM 37.3222 -86.0900 26° Northeast 365 420 29,000  Climbing Indianapolis Center
07:27AM 37.4225 -86.0247 27° Northeast 396 456 29,000  Level Indianapolis Center
07:28AM 37.5258 -85.9564 28° Northeast 413 475 29,000  Level Indianapolis Center
07:29AM 37.6356 -85.8861 27° Northeast 422 486 29,000  Level Indianapolis Center
07:30AM 37.7403 -85.8172 27° Northeast 424 488 29,000  Level Indianapolis Center
07:31AM 37.8453 -85.7483 27° Northeast 424 488 29,000  Level Indianapolis Center
07:32AM 37.9500 -85.6789 28° Northeast 423 487 29,000  Level Indianapolis Center
07:33AM 38.0750 -85.5969 27° Northeast 422 486 29,000  Level Indianapolis Center
07:34AM 38.1814 -85.5814 North 388 447 29,000  Level Indianapolis Center
07:35AM 38.2842 -85.5847 359° North 371 427 29,000  Level Indianapolis Center
07:36AM 38.3856 -85.5892 358° North 365 420 29,000  Level Indianapolis Center
07:37AM 38.4842 -85.5931 358° North 356 410 29,000  Level Indianapolis Center
07:38AM 38.5842 -85.5981 358° North 356 410 29,000 -120 Level Indianapolis Center
07:39AM 38.6858 -85.6019 358° North 362 417 28,800 -780 Descending Indianapolis Center
07:40AM 38.7906 -85.6056 358° North 371 427 27,500 -900 Descending Indianapolis Center
07:41AM 38.8972 -85.6100 358° North 380 437 27,000 -300 Descending Indianapolis Center
07:42AM 39.0228 -85.6167 358° North 376 433 27,000  Level Indianapolis Center
07:43AM 39.1267 -85.6208 358° North 373 429 27,000  Level Indianapolis Center
07:44AM 39.2297 -85.6242 359° North 371 427 27,000  Level Indianapolis Center
07:45AM 39.3317 -85.6283 358° North 367 422 27,000  Level Indianapolis Center
07:47AM 39.4233 -85.6325 358° North 334 384 27,000  Level Indianapolis Center
07:48AM 39.5156 -85.6369 358° North 330 380 27,000 -300 Level Indianapolis Center
07:49AM 39.6053 -85.6400 358° North 325 374 26,400 -1,140 Descending Indianapolis Center
07:50AM 39.7119 -85.6450 358° North 328 377 24,700 -1,620 Descending Indianapolis Center
07:51AM 39.8067 -85.6492 358° North 334 384 23,200 -1,440 Descending Indianapolis Center
07:52AM 39.9069 -85.6533 358° North 346 398 21,800 -1,440 Descending Indianapolis Center
07:53AM 40.0089 -85.6583 358° North 357 411 20,300 -1,320 Descending Indianapolis Center
07:54AM 40.1144 -85.6625 358° North 369 425 19,100 -660 Descending Indianapolis Center
07:55AM 40.2211 -85.6989 345° North 377 434 19,000 -60 Descending Chicago Center
07:56AM 40.3258 -85.7392 344° North 389 448 19,000  Level Chicago Center
07:57AM 40.4078 -85.8325 319° Northwest 390 449 19,000  Level Chicago Center
07:58AM 40.4819 -85.9378 313° West 391 450 19,000  Level Chicago Center
07:59AM 40.5578 -86.0439 313° West 397 457 19,000 -420 Level Chicago Center
08:00AM 40.6333 -86.1506 313° West 398 458 18,200 -840 Descending Chicago Center
08:01AM 40.7042 -86.2494 313° West 376 433 17,400 -540 Descending Chicago Center
08:02AM 40.7747 -86.3497 313° West 373 429 17,100 -180 Descending Chicago Center
08:03AM 40.8619 -86.4714 313° West 380 437 17,100  Level Chicago Center
08:04AM 40.9353 -86.5769 313° West 386 444 17,100 -240 Level Chicago Center
08:05AM 41.0092 -86.6828 313° West 389 448 16,700 -840 Descending Chicago Center
08:06AM 41.0883 -86.7953 313° West 385 443 15,500 -1,080 Descending Chicago Center
08:07AM 41.1586 -86.8956 313° West 376 433 14,500 -1,020 Descending Chicago Center
08:08AM 41.2289 -86.9967 313° West 376 433 13,500 -1,320 Descending Chicago Center
08:09AM 41.2958 -87.0939 313° West 363 418 11,800 -1,260 Descending Chicago Center
08:10AM 41.3600 -87.1878 312° West 349 402 11,000 -420 Descending Chicago Center
08:11AM 41.4333 -87.2667 321° Northwest 342 394 11,000  Level Chicago TRACON
08:12AM 41.5167 -87.3667 318° Northwest 349 402 11,000  Level Chicago TRACON
08:13AM 41.5833 -87.4500 317° Northwest 354 407 11,000 -60 Level Chicago TRACON
08:14AM 41.6667 -87.5333 323° Northwest 287 330 10,900 -720 Descending Chicago TRACON
08:15AM 41.7167 -87.6000 315° West 281 323 9,500 -1,560 Descending Chicago TRACON
08:16AM 41.7722 -87.6572 322° Northwest 274 315 7,700 -1,260 Descending Chicago Center
08:17AM 41.8333 -87.7000 332° Northwest 256 295 7,000 -420 Descending Chicago TRACON
08:18AM 41.9167 -87.7000 360° North 294 338 7,000 -60 Level Chicago TRACON
08:19AM 42.0000 -87.7000 360° North 271 312 6,900 -780 Descending Chicago TRACON
08:20AM 42.0667 -87.6833 11° North 261 300 5,500 -1,320 Descending Chicago TRACON
08:21AM 42.1167 -87.6667 14° North 256 295 4,500 -1,020 Descending Chicago TRACON
08:21AM 42.1272 -87.6750 330° Northwest 250 288 4,200 -360 Descending Chicago Center
08:22AM 42.1308 -87.7511 274° West 229 264 4,000 -480 Descending Chicago Center
08:23AM 42.1000 -87.7833 218° Southwest 176 203 3,400 -900 Descending Chicago TRACON
08:24AM 42.0667 -87.8167 217° Southwest 161 185 2,600 -900 Descending Chicago TRACON
08:25AM 42.0333 -87.8500 217° Southwest 112 129 1,700 -720 Descending Chicago TRACON
08:26AM 42.0167 -87.8833 236° Southwest 114 131 1,200 -600 Descending Chicago TRACON